Time;durP1;ratioP1;P1;durP2;ratioP2;P2;SDS_P1;SDS_P2;PMS_P1;PMS_P2;Temp;Humidity;BMP_temperature;BMP_pressure;BME280_temperature;BME280_humidity;BME280_pressure;Samples;Min_cycle;Max_cycle;Signal;HPM_P1;HPM_P2
2024/02/26 00:01:01;;;;;;;3.07;2.10;;;14.20;48.30;;;;;;5002115;28;20273;-57
2024/02/26 00:03:27;;;;;;;2.73;2.20;;;14.30;47.80;;;;;;5007664;28;20654;-59
2024/02/26 00:05:53;;;;;;;2.73;2.10;;;14.50;47.90;;;;;;5005359;28;20463;-54
2024/02/26 00:08:18;;;;;;;2.23;1.80;;;14.60;46.50;;;;;;5005272;28;20535;-55
2024/02/26 00:10:44;;;;;;;4.80;2.20;;;14.60;45.80;;;;;;5002976;28;20209;-57
2024/02/26 00:13:09;;;;;;;2.70;1.77;;;14.50;46.30;;;;;;5008973;28;20265;-58
2024/02/26 00:15:35;;;;;;;2.00;1.90;;;14.10;47.00;;;;;;5007430;28;20289;-56
2024/02/26 00:18:01;;;;;;;3.07;2.23;;;14.40;47.60;;;;;;5004226;28;20205;-55
2024/02/26 00:20:26;;;;;;;2.90;2.00;;;14.70;47.00;;;;;;5006761;28;20265;-58
2024/02/26 00:22:52;;;;;;;2.97;2.13;;;14.80;46.80;;;;;;5008894;28;20451;-58
2024/02/26 00:25:18;;;;;;;2.43;1.93;;;15.10;46.80;;;;;;5004064;28;20253;-55
2024/02/26 00:27:44;;;;;;;1.80;1.70;;;15.40;46.00;;;;;;5008575;28;20220;-57
2024/02/26 00:30:10;;;;;;;2.50;1.80;;;15.50;45.30;;;;;;5003147;28;20714;-58
2024/02/26 00:32:35;;;;;;;2.30;2.10;;;15.30;45.20;;;;;;5008809;28;20423;-59
2024/02/26 00:35:01;;;;;;;1.73;1.63;;;15.20;45.50;;;;;;5006508;28;20916;-54
2024/02/26 00:37:26;;;;;;;2.17;1.97;;;15.10;46.00;;;;;;5008246;28;20236;-57
2024/02/26 00:39:53;;;;;;;1.60;1.50;;;15.10;45.90;;;;;;5008924;28;20671;-58
2024/02/26 00:42:19;;;;;;;2.63;1.73;;;15.10;45.20;;;;;;5008721;28;20190;-54
2024/02/26 00:44:45;;;;;;;2.17;1.97;;;15.10;45.30;;;;;;5008925;28;20468;-59
2024/02/26 00:47:10;;;;;;;2.87;1.70;;;15.20;45.40;;;;;;5003748;28;20209;-60
2024/02/26 00:49:37;;;;;;;2.07;1.87;;;15.20;45.30;;;;;;5007731;28;20673;-58
2024/02/26 00:52:03;;;;;;;2.40;1.87;;;15.20;44.50;;;;;;5004143;28;20194;-58
2024/02/26 00:54:28;;;;;;;3.00;2.03;;;15.10;45.20;;;;;;5005911;28;20512;-60
2024/02/26 00:56:54;;;;;;;1.60;1.50;;;15.00;44.70;;;;;;5009099;28;20443;-59
2024/02/26 00:59:19;;;;;;;2.17;1.63;;;14.90;45.40;;;;;;5008117;28;20737;-54
2024/02/26 01:01:45;;;;;;;1.97;1.87;;;15.00;45.20;;;;;;5011438;28;20190;-57
2024/02/26 01:04:11;;;;;;;1.87;1.73;;;14.80;46.20;;;;;;5005614;28;20193;-59
2024/02/26 01:06:37;;;;;;;2.77;2.10;;;14.90;45.80;;;;;;5013097;28;20292;-56
2024/02/26 01:09:03;;;;;;;1.90;1.60;;;15.00;44.90;;;;;;5008599;28;21042;-57
2024/02/26 01:11:29;;;;;;;1.90;1.73;;;14.90;45.40;;;;;;5012130;28;20174;-57
2024/02/26 01:13:56;;;;;;;1.80;1.70;;;14.90;45.30;;;;;;5006219;28;21027;-57
2024/02/26 01:16:22;;;;;;;2.63;2.43;;;15.00;45.70;;;;;;5008752;28;20205;-55
2024/02/26 01:18:48;;;;;;;2.80;2.10;;;15.10;45.20;;;;;;5006613;28;21138;-58
2024/02/26 01:21:14;;;;;;;1.63;1.53;;;15.30;45.00;;;;;;5011304;28;20433;-58
2024/02/26 01:23:40;;;;;;;1.53;1.43;;;15.30;44.80;;;;;;5008871;28;20190;-55
2024/02/26 01:26:05;;;;;;;2.67;1.80;;;15.30;44.80;;;;;;5006685;28;20544;-57
2024/02/26 01:28:31;;;;;;;2.10;1.80;;;15.30;45.10;;;;;;5005066;28;20206;-59
2024/02/26 01:30:56;;;;;;;2.10;1.87;;;15.40;44.60;;;;;;5012605;28;20657;-58
2024/02/26 01:33:22;;;;;;;1.93;1.73;;;15.50;44.10;;;;;;5007856;28;20858;-55
2024/02/26 01:35:48;;;;;;;1.73;1.63;;;15.60;43.90;;;;;;5011546;28;20174;-57
2024/02/26 01:38:13;;;;;;;4.80;1.90;;;15.50;43.00;;;;;;5008154;28;20256;-58
2024/02/26 01:40:39;;;;;;;2.37;2.17;;;15.50;44.00;;;;;;5004189;28;20533;-58
2024/02/26 01:43:04;;;;;;;1.70;1.60;;;15.50;44.10;;;;;;5007253;28;20363;-63
2024/02/26 01:45:30;;;;;;;3.87;1.70;;;15.50;44.00;;;;;;5008870;28;20767;-57
2024/02/26 01:47:56;;;;;;;2.23;2.03;;;15.40;44.40;;;;;;5010854;28;20205;-58
2024/02/26 01:50:22;;;;;;;1.53;1.43;;;15.00;44.40;;;;;;5007119;28;20214;-56
2024/02/26 01:52:50;;;;;;;2.13;1.93;;;15.20;45.00;;;;;;5011923;28;20436;-56
2024/02/26 01:55:18;;;;;;;1.60;1.50;;;15.20;43.40;;;;;;5005820;28;20437;-59
2024/02/26 01:57:45;;;;;;;2.17;2.00;;;15.30;44.80;;;;;;5010322;28;20838;-57
2024/02/26 02:00:13;;;;;;;3.00;2.20;;;15.50;44.60;;;;;;5003149;28;20492;-58
2024/02/26 02:02:41;;;;;;;1.87;1.57;;;15.60;43.30;;;;;;5008714;28;20524;-60
2024/02/26 02:05:09;;;;;;;1.80;1.70;;;15.70;42.70;;;;;;5009622;28;20944;-63
2024/02/26 02:07:35;;;;;;;1.80;1.70;;;15.80;42.40;;;;;;5005789;28;20448;-57
2024/02/26 02:10:02;;;;;;;2.90;1.90;;;15.90;42.80;;;;;;5008164;28;21016;-58
2024/02/26 02:12:28;;;;;;;1.60;1.40;;;16.00;42.50;;;;;;5006672;28;20443;-57
2024/02/26 02:14:53;;;;;;;1.90;1.80;;;16.10;42.80;;;;;;5009015;28;20555;-59
2024/02/26 02:17:20;;;;;;;3.60;2.03;;;16.10;42.10;;;;;;5004957;28;20210;-60
2024/02/26 02:19:45;;;;;;;1.70;1.60;;;16.30;42.40;;;;;;5008615;28;20317;-57
2024/02/26 02:22:11;;;;;;;1.97;1.87;;;16.40;42.30;;;;;;5010354;28;20421;-57
2024/02/26 02:24:36;;;;;;;2.33;2.13;;;16.50;42.70;;;;;;5006754;28;20289;-59
2024/02/26 02:27:03;;;;;;;2.57;2.10;;;16.60;42.40;;;;;;5009184;28;20216;-60
2024/02/26 02:29:28;;;;;;;3.00;1.80;;;16.70;41.80;;;;;;5010740;28;20666;-60
2024/02/26 02:31:54;;;;;;;3.50;2.30;;;16.70;41.20;;;;;;5009614;28;20507;-57
2024/02/26 02:51:10;;;;;;;2.70;2.00;;;16.40;42.30;;;;;;5001763;28;20467;-57
2024/02/26 02:53:36;;;;;;;1.50;1.40;;;16.40;41.90;;;;;;5007980;28;20429;-57
2024/02/26 02:56:02;;;;;;;2.17;1.97;;;16.30;42.60;;;;;;5005074;28;20241;-59
2024/02/26 02:58:27;;;;;;;2.50;2.30;;;16.20;43.80;;;;;;5010000;28;20719;-58
2024/02/26 03:00:55;;;;;;;2.20;2.00;;;16.40;43.00;;;;;;5009835;28;20225;-59
2024/02/26 03:03:20;;;;;;;2.27;1.90;;;16.40;41.70;;;;;;5009429;28;20244;-59
2024/02/26 03:05:46;;;;;;;1.30;1.20;;;16.40;42.20;;;;;;5009183;28;20851;-58
2024/02/26 03:08:11;;;;;;;2.00;1.50;;;16.50;43.90;;;;;;5009471;28;20177;-60
2024/02/26 03:10:37;;;;;;;1.60;1.50;;;16.60;44.10;;;;;;5010019;28;20210;-57
2024/02/26 03:13:03;;;;;;;1.57;1.47;;;16.70;43.60;;;;;;5004034;28;20201;-60
2024/02/26 03:15:28;;;;;;;1.60;1.50;;;16.80;43.50;;;;;;5008798;28;20198;-60
2024/02/26 03:17:54;;;;;;;1.90;1.80;;;16.90;43.30;;;;;;5005194;28;20209;-58
2024/02/26 03:20:19;;;;;;;2.20;1.77;;;17.00;43.00;;;;;;5008305;28;20611;-55
2024/02/26 03:22:45;;;;;;;1.73;1.63;;;16.90;43.20;;;;;;5005728;28;20610;-57
2024/02/26 03:25:11;;;;;;;3.30;2.00;;;16.80;43.90;;;;;;5009312;28;20185;-56
2024/02/26 03:27:36;;;;;;;3.73;2.23;;;16.70;43.80;;;;;;5003894;28;20300;-58
2024/02/26 03:30:03;;;;;;;4.30;1.90;;;16.60;43.40;;;;;;5006568;28;20301;-58
2024/02/26 03:32:29;;;;;;;2.00;1.90;;;16.50;42.90;;;;;;5008997;28;20190;-60
2024/02/26 03:34:55;;;;;;;2.17;1.70;;;16.50;42.60;;;;;;5004716;28;20459;-57
2024/02/26 03:37:21;;;;;;;1.70;1.60;;;16.30;42.10;;;;;;5009150;28;20318;-56
2024/02/26 03:39:46;;;;;;;1.80;1.70;;;15.90;42.30;;;;;;5010115;28;21011;-57
2024/02/26 03:42:12;;;;;;;1.73;1.63;;;15.70;42.70;;;;;;5007248;28;20247;-56
2024/02/26 03:44:38;;;;;;;2.00;1.90;;;15.60;44.20;;;;;;5009265;28;20202;-57
2024/02/26 03:47:03;;;;;;;1.83;1.60;;;15.50;44.60;;;;;;5000407;28;20240;-60
2024/02/26 03:49:29;;;;;;;2.13;2.00;;;15.60;44.70;;;;;;5007420;28;20242;-58
2024/02/26 03:51:54;;;;;;;2.10;2.00;;;15.50;44.20;;;;;;5009181;28;20287;-58
2024/02/26 03:54:20;;;;;;;1.83;1.60;;;15.40;44.60;;;;;;5005121;28;20198;-59
2024/02/26 03:56:45;;;;;;;2.20;2.00;;;15.60;44.20;;;;;;5000827;28;20236;-58
2024/02/26 03:59:11;;;;;;;2.50;2.30;;;15.70;44.40;;;;;;5008778;28;20194;-56
2024/02/26 04:01:36;;;;;;;2.17;1.60;;;15.70;43.30;;;;;;5001892;28;20200;-58
2024/02/26 04:04:02;;;;;;;1.60;1.50;;;15.70;44.60;;;;;;5000026;28;20536;-55
2024/02/26 04:06:30;;;;;;;2.00;1.40;;;15.80;44.00;;;;;;5007225;28;20682;-61
2024/02/26 04:08:56;;;;;;;2.10;2.00;;;15.90;44.50;;;;;;5003467;28;20224;-60
2024/02/26 04:11:21;;;;;;;3.10;1.70;;;15.90;43.90;;;;;;5002946;28;20535;-58
2024/02/26 04:13:49;;;;;;;1.90;1.80;;;15.80;43.70;;;;;;5007821;28;20736;-54
2024/02/26 04:16:16;;;;;;;2.23;1.73;;;14.90;44.70;;;;;;5003565;28;20731;-58
2024/02/26 04:18:42;;;;;;;2.73;2.53;;;14.20;45.60;;;;;;5002125;28;20420;-60
2024/02/26 04:21:07;;;;;;;1.93;1.83;;;14.20;46.40;;;;;;5000205;28;20955;-53
2024/02/26 04:23:33;;;;;;;2.03;1.93;;;13.70;47.20;;;;;;5008034;28;20663;-55
2024/02/26 04:25:58;;;;;;;2.13;2.00;;;13.50;48.30;;;;;;5004334;28;20678;-59
2024/02/26 04:28:26;;;;;;;2.20;2.00;;;13.40;48.60;;;;;;5006414;28;20269;-54
2024/02/26 04:30:51;;;;;;;2.57;2.37;;;13.40;48.60;;;;;;5003905;28;20213;-53
2024/02/26 04:33:17;;;;;;;2.17;2.00;;;13.50;48.40;;;;;;5004846;28;20436;-59
2024/02/26 04:35:42;;;;;;;1.97;1.87;;;13.30;48.30;;;;;;5006878;28;20229;-57
2024/02/26 04:38:08;;;;;;;2.27;2.07;;;13.30;48.60;;;;;;5006709;28;20182;-55
2024/02/26 04:40:33;;;;;;;2.03;1.90;;;12.90;49.20;;;;;;5005477;28;20560;-54
2024/02/26 04:42:59;;;;;;;2.23;1.90;;;12.70;49.60;;;;;;5004018;28;20190;-56
2024/02/26 04:45:24;;;;;;;5.23;2.63;;;12.50;49.80;;;;;;5006264;28;20307;-57
2024/02/26 04:47:50;;;;;;;2.10;2.00;;;12.20;50.60;;;;;;5002568;28;20209;-57
2024/02/26 04:50:16;;;;;;;2.80;2.40;;;12.00;51.30;;;;;;5006876;28;20202;-54
2024/02/26 04:52:42;;;;;;;2.60;2.30;;;12.00;51.70;;;;;;5004837;28;20182;-58
2024/02/26 04:55:08;;;;;;;4.07;2.60;;;11.40;52.20;;;;;;5003412;28;20487;-55
2024/02/26 04:57:33;;;;;;;2.07;1.90;;;11.10;53.30;;;;;;5007559;28;20240;-56
2024/02/26 04:59:59;;;;;;;2.50;2.20;;;11.00;53.60;;;;;;5003553;28;20842;-58
2024/02/26 05:02:24;;;;;;;2.57;2.37;;;11.00;53.80;;;;;;5005236;28;20196;-56
2024/02/26 05:04:50;;;;;;;2.60;2.40;;;11.00;53.90;;;;;;5002481;28;20190;-54
2024/02/26 05:07:17;;;;;;;2.80;2.00;;;11.30;53.50;;;;;;5004637;28;20233;-53
2024/02/26 05:09:43;;;;;;;1.80;1.70;;;11.60;52.70;;;;;;5001259;28;20493;-54
2024/02/26 05:12:09;;;;;;;2.63;2.20;;;11.90;51.80;;;;;;5006325;28;20909;-55
2024/02/26 05:14:35;;;;;;;2.73;2.27;;;11.60;51.90;;;;;;5004691;28;20559;-57
2024/02/26 05:17:00;;;;;;;2.20;2.00;;;11.50;52.50;;;;;;5001993;28;20515;-56
2024/02/26 05:19:26;;;;;;;1.90;1.80;;;11.50;52.80;;;;;;5004709;28;20598;-55
2024/02/26 05:21:51;;;;;;;2.67;2.07;;;11.40;52.70;;;;;;5006152;28;20237;-56
2024/02/26 05:24:18;;;;;;;1.97;1.80;;;11.40;52.70;;;;;;5002256;28;20333;-55
2024/02/26 05:26:45;;;;;;;2.07;1.80;;;11.30;52.50;;;;;;5006739;28;20575;-58
2024/02/26 05:29:10;;;;;;;1.90;1.80;;;11.40;52.30;;;;;;4998094;28;20707;-57
2024/02/26 05:31:36;;;;;;;2.20;2.00;;;11.60;51.70;;;;;;5008516;28;20500;-58
2024/02/26 05:34:01;;;;;;;2.93;1.97;;;11.60;51.50;;;;;;5005877;28;20555;-58
2024/02/26 05:36:28;;;;;;;2.70;1.67;;;11.60;51.60;;;;;;5007456;28;20570;-55
2024/02/26 05:38:54;;;;;;;2.90;2.10;;;11.80;51.50;;;;;;5004517;28;20277;-55
2024/02/26 05:41:23;;;;;;;2.47;1.90;;;11.90;51.00;;;;;;5008461;28;20475;-56
2024/02/26 05:43:50;;;;;;;1.97;1.77;;;12.10;50.70;;;;;;5004545;28;20919;-53
2024/02/26 05:46:20;;;;;;;2.90;2.17;;;12.30;50.30;;;;;;5007898;28;20432;-57
2024/02/26 05:48:50;;;;;;;1.87;1.77;;;12.60;50.00;;;;;;5004432;28;20439;-57
2024/02/26 05:51:16;;;;;;;2.20;2.00;;;12.90;49.60;;;;;;5007754;28;20508;-57
2024/02/26 05:53:42;;;;;;;3.10;2.20;;;13.10;49.30;;;;;;5008910;28;20504;-58
2024/02/26 05:56:07;;;;;;;2.40;1.80;;;13.20;49.10;;;;;;5005246;28;20209;-56
2024/02/26 05:58:33;;;;;;;2.40;2.20;;;13.30;49.40;;;;;;5006935;28;20186;-54
2024/02/26 06:00:59;;;;;;;2.10;2.00;;;13.40;49.60;;;;;;5011964;28;20197;-57
2024/02/26 06:03:25;;;;;;;3.63;2.27;;;13.40;49.50;;;;;;5006052;28;20210;-54
2024/02/26 06:05:51;;;;;;;2.80;2.20;;;13.50;49.50;;;;;;5010309;28;20979;-54
2024/02/26 06:08:16;;;;;;;2.83;2.50;;;13.50;50.00;;;;;;5006902;28;20182;-57
2024/02/26 06:10:42;;;;;;;2.10;1.90;;;13.60;50.70;;;;;;5010742;28;20245;-57
2024/02/26 06:13:07;;;;;;;2.57;2.33;;;13.50;51.00;;;;;;5007540;28;20265;-58
2024/02/26 06:15:33;;;;;;;3.70;2.10;;;13.60;51.60;;;;;;5008249;28;20225;-56
2024/02/26 06:17:59;;;;;;;6.00;1.77;;;13.60;52.20;;;;;;5006570;28;20202;-58
2024/02/26 06:20:24;;;;;;;4.60;2.40;;;13.50;52.60;;;;;;5007722;28;20182;-60
2024/02/26 06:22:51;;;;;;;3.40;2.20;;;13.50;52.90;;;;;;5004681;28;20190;-55
2024/02/26 06:25:16;;;;;;;2.30;2.10;;;13.60;52.70;;;;;;5006085;28;20531;-59
2024/02/26 06:27:42;;;;;;;2.10;1.90;;;13.70;53.20;;;;;;5008174;28;20543;-59
2024/02/26 06:30:10;;;;;;;3.57;2.17;;;13.80;53.00;;;;;;5007246;28;20231;-56
2024/02/26 06:32:36;;;;;;;2.17;1.97;;;13.90;52.80;;;;;;5006717;28;20276;-60
2024/02/26 06:35:06;;;;;;;2.30;2.10;;;14.00;52.50;;;;;;5009349;28;20425;-59
2024/02/26 06:37:33;;;;;;;2.60;2.40;;;14.10;52.00;;;;;;5006562;28;20492;-58
2024/02/26 06:39:59;;;;;;;3.27;2.30;;;14.30;52.40;;;;;;5012812;28;20451;-60
2024/02/26 06:42:24;;;;;;;2.17;2.00;;;14.30;51.60;;;;;;5007981;28;20441;-60
2024/02/26 06:44:50;;;;;;;2.50;2.27;;;14.40;51.50;;;;;;5009601;28;20449;-56
2024/02/26 06:47:15;;;;;;;2.10;1.90;;;14.50;51.30;;;;;;5002961;28;20354;-54
2024/02/26 06:49:41;;;;;;;2.20;1.80;;;14.50;50.90;;;;;;5003345;28;20937;-59
2024/02/26 06:52:06;;;;;;;2.77;2.57;;;14.50;50.90;;;;;;5009902;28;20664;-61
2024/02/26 06:54:32;;;;;;;2.73;2.50;;;14.30;50.70;;;;;;5008010;28;20186;-60
2024/02/26 06:56:58;;;;;;;4.10;2.33;;;14.40;50.80;;;;;;5005192;28;20206;-55
2024/02/26 06:59:24;;;;;;;3.03;2.37;;;14.50;50.90;;;;;;5005049;28;20262;-58
2024/02/26 07:01:49;;;;;;;2.83;2.53;;;14.60;51.10;;;;;;5005403;28;20665;-59
2024/02/26 07:04:15;;;;;;;2.53;2.33;;;14.60;50.90;;;;;;5004660;28;20524;-62
2024/02/26 07:06:41;;;;;;;7.67;6.10;;;14.70;50.80;;;;;;5006485;28;20210;-58
2024/02/26 07:09:07;;;;;;;6.20;5.07;;;14.60;50.80;;;;;;5004040;28;20186;-61
2024/02/26 07:11:32;;;;;;;4.40;4.00;;;14.50;50.70;;;;;;5006558;28;20421;-59
2024/02/26 07:13:58;;;;;;;6.50;4.80;;;14.60;50.80;;;;;;5008422;28;20187;-60
2024/02/26 07:16:23;;;;;;;5.10;3.77;;;14.60;50.60;;;;;;5009283;28;20198;-57
2024/02/26 07:18:49;;;;;;;4.17;3.00;;;14.60;50.60;;;;;;5009761;28;20231;-57
2024/02/26 07:21:15;;;;;;;5.30;2.80;;;14.60;50.30;;;;;;5001714;28;20461;-61
2024/02/26 07:23:40;;;;;;;3.97;3.43;;;14.60;50.80;;;;;;5008583;28;20193;-59
2024/02/26 07:26:08;;;;;;;4.20;2.97;;;14.50;50.70;;;;;;5009451;28;20209;-62
2024/02/26 07:28:33;;;;;;;4.27;2.90;;;14.60;50.80;;;;;;5006645;28;20182;-59
2024/02/26 07:30:59;;;;;;;4.80;2.87;;;14.50;50.70;;;;;;5005023;28;20891;-56
2024/02/26 07:33:24;;;;;;;4.17;2.97;;;14.50;51.20;;;;;;5003628;28;20659;-57
2024/02/26 07:35:50;;;;;;;5.33;2.93;;;14.60;50.90;;;;;;5004893;28;20256;-60
2024/02/26 07:38:16;;;;;;;4.10;3.70;;;14.70;50.90;;;;;;5002633;28;20735;-59
2024/02/26 07:40:41;;;;;;;3.77;3.13;;;14.70;50.60;;;;;;5007030;28;20300;-58
2024/02/26 07:43:07;;;;;;;3.00;2.70;;;14.70;50.40;;;;;;5004469;28;20673;-62
2024/02/26 07:45:33;;;;;;;4.67;3.10;;;14.70;50.20;;;;;;5006664;28;20178;-57
2024/02/26 07:47:58;;;;;;;3.83;2.63;;;14.80;50.30;;;;;;5005498;28;20205;-59
2024/02/26 07:50:24;;;;;;;4.10;2.67;;;14.80;50.40;;;;;;5005966;28;20215;-61
2024/02/26 07:52:51;;;;;;;4.33;2.93;;;14.60;51.10;;;;;;5009757;28;20672;-60
2024/02/26 07:55:16;;;;;;;4.63;2.93;;;14.40;51.80;;;;;;5002167;28;20273;-61
2024/02/26 07:57:43;;;;;;;3.30;3.00;;;14.50;51.80;;;;;;5008426;28;20543;-58
2024/02/26 08:00:10;;;;;;;2.70;2.50;;;14.60;52.00;;;;;;5002594;28;20194;-58
2024/02/26 08:02:36;;;;;;;8.50;3.23;;;14.70;51.80;;;;;;5007101;28;20445;-57
2024/02/26 08:05:02;;;;;;;3.87;2.77;;;14.70;51.80;;;;;;5008170;28;20471;-59
2024/02/26 08:07:28;;;;;;;3.23;2.53;;;14.70;52.10;;;;;;5006508;28;20193;-62
2024/02/26 08:09:54;;;;;;;7.23;3.97;;;14.60;52.50;;;;;;5009725;28;20217;-61
2024/02/26 08:12:19;;;;;;;4.53;3.50;;;14.70;52.50;;;;;;5005424;28;20437;-61
2024/02/26 08:14:45;;;;;;;9.60;3.60;;;14.70;52.50;;;;;;5000487;28;20202;-62
2024/02/26 08:17:10;;;;;;;3.30;2.80;;;14.80;51.90;;;;;;5005804;28;20221;-57
2024/02/26 08:19:36;;;;;;;4.37;3.20;;;14.80;52.10;;;;;;5006097;28;20198;-58
2024/02/26 08:22:02;;;;;;;3.43;3.13;;;14.80;52.10;;;;;;5007266;28;20768;-61
2024/02/26 08:24:28;;;;;;;3.17;2.90;;;14.80;52.40;;;;;;5005184;28;20247;-61
2024/02/26 08:26:54;;;;;;;5.00;3.03;;;14.80;52.60;;;;;;5002853;28;20448;-59
2024/02/26 08:29:19;;;;;;;2.60;2.40;;;14.70;52.40;;;;;;5002137;28;20705;-60
2024/02/26 08:31:45;;;;;;;4.67;3.33;;;14.20;53.20;;;;;;5009635;28;20190;-60
2024/02/26 08:34:10;;;;;;;5.90;3.50;;;14.00;54.00;;;;;;5000655;28;20188;-61
2024/02/26 08:36:36;;;;;;;3.33;2.70;;;14.10;54.10;;;;;;5010075;28;20685;-59
2024/02/26 08:39:02;;;;;;;3.47;2.60;;;14.20;53.80;;;;;;5007868;28;20670;-59
2024/02/26 08:41:27;;;;;;;3.17;2.80;;;14.30;54.00;;;;;;5008736;28;20240;-59
2024/02/26 08:43:53;;;;;;;2.60;2.40;;;14.30;53.40;;;;;;5002862;28;20559;-58
2024/02/26 08:46:18;;;;;;;2.90;2.70;;;14.30;53.30;;;;;;5005274;28;20267;-60
2024/02/26 08:48:44;;;;;;;3.10;2.53;;;14.40;53.50;;;;;;5000536;28;20261;-60
2024/02/26 08:51:09;;;;;;;3.67;2.83;;;14.30;53.80;;;;;;5004935;28;20217;-60
2024/02/26 08:53:36;;;;;;;3.40;2.90;;;14.10;54.10;;;;;;5005534;28;20182;-59
2024/02/26 08:56:01;;;;;;;3.17;2.87;;;14.20;54.20;;;;;;5004255;28;20668;-60
2024/02/26 08:58:30;;;;;;;5.30;4.00;;;14.00;53.20;;;;;;5005860;28;20487;-58
2024/02/26 09:00:55;;;;;;;7.70;5.10;;;14.00;54.40;;;;;;5004325;28;20186;-57
2024/02/26 09:03:21;;;;;;;4.17;3.20;;;14.00;54.00;;;;;;5006761;28;20451;-58
2024/02/26 09:05:47;;;;;;;3.83;2.93;;;14.00;54.30;;;;;;5008190;28;20283;-59
2024/02/26 09:08:13;;;;;;;3.37;2.80;;;14.00;54.40;;;;;;5001472;28;20446;-56
2024/02/26 09:10:39;;;;;;;9.53;2.70;;;14.00;54.10;;;;;;5008574;28;20486;-59
2024/02/26 09:13:05;;;;;;;3.13;2.83;;;14.10;53.70;;;;;;5001618;28;20202;-61
2024/02/26 09:15:30;;;;;;;4.70;3.07;;;14.30;53.30;;;;;;5005831;28;20677;-59
2024/02/26 09:17:56;;;;;;;3.30;3.00;;;14.50;53.30;;;;;;5008690;28;20209;-60
2024/02/26 09:20:23;;;;;;;4.60;3.17;;;14.50;53.20;;;;;;5012017;28;20189;-55
2024/02/26 09:22:49;;;;;;;3.70;3.30;;;14.60;53.10;;;;;;5008624;28;20197;-61
2024/02/26 09:25:17;;;;;;;4.90;4.30;;;14.80;52.80;;;;;;5010221;28;21086;-58
2024/02/26 09:27:44;;;;;;;3.60;3.30;;;14.90;52.70;;;;;;5009863;28;20468;-58
2024/02/26 09:30:13;;;;;;;3.60;3.30;;;14.90;52.60;;;;;;5011676;28;20476;-55
2024/02/26 09:32:39;;;;;;;4.13;3.20;;;15.00;52.60;;;;;;5007561;28;20437;-58
2024/02/26 09:35:08;;;;;;;5.03;3.37;;;15.00;52.90;;;;;;5004935;28;20428;-56
2024/02/26 09:37:36;;;;;;;4.97;3.83;;;15.10;52.80;;;;;;5007669;28;21787;-56
2024/02/26 09:40:03;;;;;;;3.40;3.10;;;15.20;52.60;;;;;;5010072;28;20476;-55
2024/02/26 09:42:33;;;;;;;3.43;3.13;;;15.30;52.70;;;;;;5010225;28;20425;-60
2024/02/26 09:45:03;;;;;;;4.20;2.97;;;15.10;51.90;;;;;;5009752;28;20429;-61
2024/02/26 09:47:32;;;;;;;3.70;3.40;;;15.00;52.50;;;;;;5009327;28;20492;-60
2024/02/26 09:50:00;;;;;;;3.83;2.80;;;15.00;52.30;;;;;;5007209;28;20898;-59
2024/02/26 09:52:28;;;;;;;2.90;2.67;;;14.70;52.60;;;;;;5003794;28;20607;-58
2024/02/26 09:54:53;;;;;;;4.07;3.03;;;14.90;52.20;;;;;;5008496;28;20919;-60
2024/02/26 09:57:19;;;;;;;16.00;9.33;;;15.00;51.40;;;;;;5010010;28;20464;-58
2024/02/26 09:59:47;;;;;;;5.30;3.77;;;14.90;51.30;;;;;;5009841;28;20268;-56
2024/02/26 10:02:14;;;;;;;3.47;2.80;;;14.90;50.50;;;;;;5010910;28;20213;-59
2024/02/26 10:04:40;;;;;;;3.20;2.60;;;15.00;50.60;;;;;;5010721;28;20417;-58
2024/02/26 10:07:13;;;;;;;3.23;2.60;;;15.00;50.60;;;;;;5006144;28;20519;-60
2024/02/26 10:09:40;;;;;;;3.83;2.73;;;14.90;51.40;;;;;;5011192;28;20488;-58
2024/02/26 10:12:08;;;;;;;2.60;2.30;;;14.70;51.30;;;;;;5014056;28;20562;-61
2024/02/26 10:14:34;;;;;;;3.17;2.80;;;14.60;51.80;;;;;;5006228;28;20455;-58
2024/02/26 10:17:02;;;;;;;2.80;2.40;;;14.30;52.60;;;;;;5006356;28;20476;-60
2024/02/26 10:19:29;;;;;;;2.37;2.10;;;14.30;52.90;;;;;;5009513;28;20193;-58
2024/02/26 10:22:03;;;;;;;3.17;2.87;;;14.30;53.70;;;;;;5006827;28;20492;-58
2024/02/26 10:24:29;;;;;;;4.80;3.53;;;14.10;53.20;;;;;;5010171;28;20449;-60
2024/02/26 10:26:56;;;;;;;4.40;3.70;;;14.30;53.40;;;;;;5010320;28;20472;-57
2024/02/26 10:29:23;;;;;;;6.40;4.90;;;14.50;53.40;;;;;;5008825;28;20565;-58
2024/02/26 10:31:51;;;;;;;3.60;3.30;;;14.50;52.80;;;;;;5009041;28;20449;-56
2024/02/26 10:34:16;;;;;;;3.07;2.60;;;14.60;52.10;;;;;;5002948;28;20453;-61
2024/02/26 10:36:43;;;;;;;2.70;2.50;;;14.70;52.00;;;;;;5009041;28;20822;-59
2024/02/26 10:39:11;;;;;;;3.30;3.00;;;15.20;51.10;;;;;;5009976;28;20186;-57
2024/02/26 10:41:36;;;;;;;5.40;2.47;;;15.50;50.10;;;;;;5009110;28;20437;-59
2024/02/26 10:44:03;;;;;;;2.83;2.53;;;15.40;49.00;;;;;;5008303;28;20798;-61
2024/02/26 10:46:28;;;;;;;2.90;2.70;;;15.40;48.70;;;;;;5004756;28;20688;-60
2024/02/26 10:48:54;;;;;;;2.20;2.10;;;15.00;48.90;;;;;;5009079;28;20528;-58
2024/02/26 10:51:30;;;;;;;3.13;2.53;;;14.70;49.60;;;;;;5005016;28;20276;-58
2024/02/26 10:54:04;;;;;;;2.60;2.40;;;15.10;50.30;;;;;;5009707;28;20244;-60
2024/02/26 10:56:33;;;;;;;2.47;2.20;;;15.70;48.40;;;;;;5003362;28;20461;-60
2024/02/26 10:58:59;;;;;;;4.10;2.57;;;16.10;47.30;;;;;;5003690;28;20433;-60
2024/02/26 11:01:26;;;;;;;3.20;1.83;;;16.50;46.90;;;;;;5008653;28;20433;-59
2024/02/26 11:03:53;;;;;;;4.13;2.57;;;16.80;46.00;;;;;;5006114;28;20448;-61
2024/02/26 11:06:20;;;;;;;2.60;2.40;;;16.80;45.40;;;;;;5006952;28;20503;-58
2024/02/26 11:08:50;;;;;;;2.37;2.10;;;17.00;45.40;;;;;;5006618;28;20465;-60
2024/02/26 11:11:17;;;;;;;2.57;2.37;;;17.00;44.60;;;;;;5006546;28;20481;-59
2024/02/26 11:13:49;;;;;;;2.40;2.20;;;17.20;44.70;;;;;;5009069;28;20496;-61
2024/02/26 11:16:16;;;;;;;2.93;2.27;;;17.40;44.70;;;;;;5008766;28;20479;-58
2024/02/26 11:18:42;;;;;;;2.30;2.10;;;17.60;44.50;;;;;;5004350;28;20460;-59
2024/02/26 11:21:08;;;;;;;2.20;2.00;;;17.40;44.20;;;;;;5007043;28;20838;-62
2024/02/26 11:23:37;;;;;;;2.30;1.93;;;17.60;44.00;;;;;;5006237;28;20457;-62
2024/02/26 11:26:05;;;;;;;2.37;1.90;;;17.60;43.60;;;;;;5003104;28;20505;-58
2024/02/26 11:28:33;;;;;;;1.83;1.73;;;17.60;43.60;;;;;;5005587;28;20443;-61
2024/02/26 11:31:00;;;;;;;3.00;1.90;;;17.70;43.50;;;;;;5002796;28;21042;-60
2024/02/26 11:33:26;;;;;;;1.90;1.80;;;17.60;42.50;;;;;;5006828;28;20482;-58
2024/02/26 11:35:53;;;;;;;2.47;2.10;;;17.50;43.80;;;;;;5004766;28;20483;-56
2024/02/26 11:38:24;;;;;;;2.90;1.90;;;17.70;44.30;;;;;;5004136;28;20201;-59
2024/02/26 11:40:50;;;;;;;1.90;1.73;;;18.00;42.90;;;;;;5002865;28;20483;-58
2024/02/26 11:43:16;;;;;;;1.60;1.37;;;17.90;42.30;;;;;;5009128;28;20917;-58
2024/02/26 11:45:43;;;;;;;1.70;1.53;;;18.00;42.50;;;;;;4997368;28;20499;-57
2024/02/26 11:48:12;;;;;;;2.53;1.93;;;18.10;41.60;;;;;;5003430;28;20445;-59
2024/02/26 11:50:47;;;;;;;1.83;1.70;;;18.00;41.70;;;;;;5010024;28;20500;-56
2024/02/26 11:53:19;;;;;;;2.03;1.37;;;17.80;41.80;;;;;;5003498;28;20451;-58
2024/02/26 11:55:45;;;;;;;1.70;1.60;;;17.80;42.10;;;;;;5006782;28;20449;-59
2024/02/26 11:58:11;;;;;;;1.63;1.53;;;18.00;42.40;;;;;;5004665;28;20480;-60
2024/02/26 12:00:36;;;;;;;1.73;1.63;;;17.90;41.30;;;;;;5007165;28;20248;-56
2024/02/26 12:03:05;;;;;;;1.70;1.33;;;17.60;42.30;;;;;;5004912;28;20241;-57
2024/02/26 12:05:36;;;;;;;2.30;1.40;;;17.60;42.50;;;;;;5005411;28;20190;-58
2024/02/26 12:08:06;;;;;;;1.60;1.50;;;17.20;42.20;;;;;;5004191;28;20472;-56
2024/02/26 12:10:39;;;;;;;2.20;1.60;;;17.40;43.10;;;;;;5006769;28;20516;-58
2024/02/26 12:13:12;;;;;;;1.83;1.63;;;17.60;42.90;;;;;;5000241;28;20526;-60
2024/02/26 12:15:40;;;;;;;1.50;1.40;;;18.00;43.00;;;;;;5005542;28;21037;-59
2024/02/26 12:18:10;;;;;;;2.37;1.80;;;18.30;42.70;;;;;;5005350;28;20881;-55
2024/02/26 12:20:36;;;;;;;1.73;1.40;;;18.40;42.30;;;;;;5004033;28;20455;-56
2024/02/26 12:23:05;;;;;;;1.10;1.10;;;18.60;42.10;;;;;;5007348;28;20456;-57
2024/02/26 12:25:32;;;;;;;1.90;1.70;;;18.80;41.70;;;;;;5007174;28;20499;-55
2024/02/26 12:27:58;;;;;;;2.73;1.80;;;19.00;42.40;;;;;;5003438;28;20472;-61
2024/02/26 12:30:29;;;;;;;2.40;1.73;;;19.10;42.90;;;;;;5002492;28;20476;-55
2024/02/26 12:33:00;;;;;;;1.73;1.63;;;19.10;42.60;;;;;;5008717;28;20483;-58
2024/02/26 12:35:26;;;;;;;1.70;1.50;;;19.00;40.30;;;;;;5007563;28;20443;-56
2024/02/26 12:37:53;;;;;;;1.83;1.67;;;18.80;39.30;;;;;;5002812;28;20503;-58
2024/02/26 12:40:19;;;;;;;1.33;1.23;;;18.80;40.00;;;;;;5006533;28;20445;-56
2024/02/26 12:42:46;;;;;;;2.00;1.80;;;18.50;39.60;;;;;;5005854;28;20432;-57
2024/02/26 12:45:12;;;;;;;2.70;1.53;;;18.70;40.00;;;;;;5001313;28;20194;-58
2024/02/26 12:47:42;;;;;;;1.40;1.30;;;18.90;39.40;;;;;;5005453;28;20519;-55
2024/02/26 12:50:09;;;;;;;4.80;1.40;;;18.80;40.20;;;;;;5006391;28;20480;-60
2024/02/26 12:52:36;;;;;;;1.53;1.30;;;18.70;40.10;;;;;;5008202;28;20464;-59
2024/02/26 12:55:03;;;;;;;1.60;1.50;;;18.90;39.30;;;;;;5010940;28;20436;-54
2024/02/26 12:57:31;;;;;;;1.67;1.57;;;19.20;39.70;;;;;;5007607;28;20970;-61
2024/02/26 13:00:01;;;;;;;3.30;1.63;;;19.30;40.10;;;;;;5008907;28;20483;-59